Time;durP1;ratioP1;P1;durP2;ratioP2;P2;SDS_P1;SDS_P2;PMS_P1;PMS_P2;Temp;Humidity;BMP_temperature;BMP_pressure;BME280_temperature;BME280_humidity;BME280_pressure;Samples;Min_cycle;Max_cycle;Signal;HPM_P1;HPM_P2
2022/11/04 00:00:14;;;;;;;1.70;1.50;;;;;;;;;;5046214;28;20374;-60
2022/11/04 00:02:39;;;;;;;2.10;1.73;;;;;;;;;;5040223;28;20198;-60
2022/11/04 00:05:04;;;;;;;2.10;1.60;;;;;;;;;;5040230;28;20423;-56
2022/11/04 00:10:13;;;;;;;1.87;1.60;;;;;;;;;;5047616;28;20725;-57
2022/11/04 00:12:38;;;;;;;1.87;1.50;;;;;;;;;;5046329;28;20178;-58
2022/11/04 00:17:48;;;;;;;1.60;1.50;;;;;;;;;;5045311;28;20194;-60
2022/11/04 00:28:43;;;;;;;1.97;1.70;;;;;;;;;;5040665;28;20205;-59
2022/11/04 00:33:54;;;;;;;2.03;1.70;;;;;;;;;;5049626;28;20182;-62
2022/11/04 00:36:20;;;;;;;1.83;1.60;;;;;;;;;;5039389;28;20643;-60
2022/11/04 00:38:46;;;;;;;1.70;1.60;;;;;;;;;;5040063;28;20646;-59
2022/11/04 00:41:32;;;;;;;2.27;1.80;;;;;;;;;;5047513;28;20184;-60
2022/11/04 00:43:58;;;;;;;1.57;1.47;;;;;;;;;;5052023;28;20614;-61
2022/11/04 00:46:24;;;;;;;2.20;1.70;;;;;;;;;;5042908;28;20289;-62
2022/11/04 00:48:50;;;;;;;1.70;1.60;;;;;;;;;;5046247;28;20187;-60
2022/11/04 00:51:15;;;;;;;1.70;1.60;;;;;;;;;;5052041;28;20187;-62
2022/11/04 00:53:41;;;;;;;1.70;1.60;;;;;;;;;;5048502;28;20213;-60
2022/11/04 00:56:06;;;;;;;2.80;1.70;;;;;;;;;;5039882;28;20182;-60
2022/11/04 00:58:31;;;;;;;1.50;1.40;;;;;;;;;;5046140;28;20179;-61
2022/11/04 01:00:56;;;;;;;2.37;1.80;;;;;;;;;;5050386;28;20520;-58
2022/11/04 01:03:22;;;;;;;1.97;1.73;;;;;;;;;;5044118;28;20187;-60
2022/11/04 01:05:47;;;;;;;1.87;1.50;;;;;;;;;;5047676;28;20753;-58
2022/11/04 01:08:13;;;;;;;1.83;1.50;;;;;;;;;;5034168;28;20457;-60
2022/11/04 01:10:43;;;;;;;1.60;1.50;;;;;;;;;;5047729;28;20194;-59
2022/11/04 01:13:12;;;;;;;1.70;1.60;;;;;;;;;;5041845;28;20172;-61
2022/11/04 01:15:37;;;;;;;2.40;1.50;;;;;;;;;;5046547;28;20611;-60
2022/11/04 01:18:03;;;;;;;1.60;1.50;;;;;;;;;;5050317;28;20229;-57
2022/11/04 01:20:28;;;;;;;1.60;1.50;;;;;;;;;;5045010;28;20674;-60
2022/11/04 01:22:53;;;;;;;1.73;1.60;;;;;;;;;;5047378;28;20258;-60
2022/11/04 01:25:18;;;;;;;1.67;1.57;;;;;;;;;;5043549;28;20274;-57
2022/11/04 01:27:43;;;;;;;1.50;1.40;;;;;;;;;;5048799;28;20186;-58
2022/11/04 01:30:09;;;;;;;1.67;1.30;;;;;;;;;;5050744;28;20203;-60
2022/11/04 01:32:35;;;;;;;1.77;1.50;;;;;;;;;;5043602;28;20179;-60
2022/11/04 01:35:00;;;;;;;1.93;1.50;;;;;;;;;;5040949;28;20664;-61
2022/11/04 01:37:25;;;;;;;1.97;1.60;;;;;;;;;;5050895;28;20179;-60
2022/11/04 01:39:50;;;;;;;1.57;1.30;;;;;;;;;;5047566;28;20191;-59
2022/11/04 01:42:20;;;;;;;1.83;1.50;;;;;;;;;;5040470;28;20248;-59
2022/11/04 01:44:53;;;;;;;1.53;1.30;;;;;;;;;;5046025;28;20175;-58
2022/11/04 01:47:29;;;;;;;1.40;1.30;;;;;;;;;;5038347;28;20171;-60
2022/11/04 01:50:11;;;;;;;1.70;1.60;;;;;;;;;;5044562;28;20471;-62
2022/11/04 01:52:37;;;;;;;1.50;1.40;;;;;;;;;;5047099;28;20723;-60
2022/11/04 01:55:07;;;;;;;2.20;1.70;;;;;;;;;;5041671;28;20171;-58
2022/11/04 01:57:39;;;;;;;1.67;1.57;;;;;;;;;;5041248;28;20179;-57
2022/11/04 02:00:06;;;;;;;1.70;1.60;;;;;;;;;;5046270;28;20530;-60
2022/11/04 02:02:31;;;;;;;1.93;1.60;;;;;;;;;;5043300;28;20236;-59
2022/11/04 02:04:56;;;;;;;1.60;1.50;;;;;;;;;;5043855;28;20203;-58
2022/11/04 02:07:22;;;;;;;2.50;1.50;;;;;;;;;;5042116;28;20720;-59
2022/11/04 02:09:48;;;;;;;1.70;1.60;;;;;;;;;;5040219;28;20202;-60
2022/11/04 02:14:57;;;;;;;2.10;1.50;;;;;;;;;;5047629;28;20226;-59
2022/11/04 02:17:28;;;;;;;1.93;1.70;;;;;;;;;;5043898;28;20207;-58
2022/11/04 02:19:59;;;;;;;1.70;1.60;;;;;;;;;;5045266;28;20285;-59
2022/11/04 02:22:34;;;;;;;1.83;1.50;;;;;;;;;;5057743;28;20187;-61
2022/11/04 02:25:11;;;;;;;1.40;1.30;;;;;;;;;;5042025;28;20206;-59
2022/11/04 02:27:46;;;;;;;1.47;1.30;;;;;;;;;;5049167;28;20600;-59
2022/11/04 02:30:18;;;;;;;2.23;1.60;;;;;;;;;;5052451;28;20236;-57
2022/11/04 02:33:00;;;;;;;1.40;1.30;;;;;;;;;;5041551;28;20318;-60
2022/11/04 02:35:47;;;;;;;1.40;1.30;;;;;;;;;;5039844;28;20186;-60
2022/11/04 02:38:21;;;;;;;2.13;1.70;;;;;;;;;;5039820;28;20690;-60
2022/11/04 02:41:10;;;;;;;1.63;1.50;;;;;;;;;;5043530;28;20457;-59
2022/11/04 02:43:57;;;;;;;1.97;1.43;;;;;;;;;;5049604;28;20183;-61
2022/11/04 02:46:35;;;;;;;1.33;1.23;;;;;;;;;;5046159;28;20206;-60
2022/11/04 02:49:07;;;;;;;1.77;1.30;;;;;;;;;;5040499;28;20210;-60
2022/11/04 02:51:40;;;;;;;1.70;1.43;;;;;;;;;;5046555;28;20175;-60
2022/11/04 02:54:10;;;;;;;1.50;1.40;;;;;;;;;;5039564;28;20588;-57
2022/11/04 02:56:39;;;;;;;1.70;1.57;;;;;;;;;;5039898;28;20203;-63
2022/11/04 02:59:19;;;;;;;1.50;1.40;;;;;;;;;;5046690;28;20199;-61
2022/11/04 03:01:45;;;;;;;1.60;1.50;;;;;;;;;;5037729;28;20274;-58
2022/11/04 03:04:14;;;;;;;1.70;1.43;;;;;;;;;;5023882;28;20171;-57
2022/11/04 03:06:42;;;;;;;1.30;1.10;;;;;;;;;;5036057;28;20198;-58
2022/11/04 03:09:09;;;;;;;1.63;1.40;;;;;;;;;;5038658;28;20591;-61
2022/11/04 03:11:35;;;;;;;1.70;1.50;;;;;;;;;;5042806;28;20194;-57
2022/11/04 03:14:06;;;;;;;1.60;1.50;;;;;;;;;;5045178;28;20183;-57
2022/11/04 03:16:43;;;;;;;1.77;1.57;;;;;;;;;;5046330;28;20179;-59
2022/11/04 03:19:15;;;;;;;1.53;1.40;;;;;;;;;;5035871;28;20276;-58
2022/11/04 03:21:50;;;;;;;1.63;1.47;;;;;;;;;;5036324;28;20613;-60
2022/11/04 03:24:15;;;;;;;1.60;1.37;;;;;;;;;;5040777;28;20304;-57
2022/11/04 03:26:50;;;;;;;2.53;1.40;;;;;;;;;;5038446;28;20281;-57
2022/11/04 03:29:28;;;;;;;1.60;1.50;;;;;;;;;;5039128;28;20281;-60
2022/11/04 03:32:21;;;;;;;1.83;1.30;;;;;;;;;;5039463;28;20171;-60
2022/11/04 03:34:46;;;;;;;1.57;1.47;;;;;;;;;;5043108;28;20514;-60
2022/11/04 03:37:11;;;;;;;1.40;1.30;;;;;;;;;;5039484;28;20476;-58
2022/11/04 03:39:37;;;;;;;1.50;1.37;;;;;;;;;;5046782;28;20614;-60
2022/11/04 03:42:18;;;;;;;1.53;1.10;;;;;;;;;;5041695;28;20708;-61
2022/11/04 03:44:54;;;;;;;1.50;1.40;;;;;;;;;;5043880;28;20187;-58
2022/11/04 03:47:23;;;;;;;1.73;1.40;;;;;;;;;;5047809;28;20703;-60
2022/11/04 03:49:49;;;;;;;1.93;1.70;;;;;;;;;;5046850;28;20215;-59
2022/11/04 03:52:15;;;;;;;1.80;1.33;;;;;;;;;;5041459;28;20261;-60
2022/11/04 03:54:41;;;;;;;1.97;1.67;;;;;;;;;;5042300;28;20658;-60
2022/11/04 03:57:42;;;;;;;1.47;1.37;;;;;;;;;;5035216;28;20180;-57
2022/11/04 04:00:10;;;;;;;1.63;1.50;;;;;;;;;;5039509;28;20330;-59
2022/11/04 04:03:15;;;;;;;1.40;1.30;;;;;;;;;;5034106;28;20658;-60
2022/11/04 04:06:02;;;;;;;2.10;1.40;;;;;;;;;;5036357;28;20210;-58
2022/11/04 04:08:41;;;;;;;1.50;1.40;;;;;;;;;;5036657;28;20176;-60
2022/11/04 04:11:15;;;;;;;1.30;1.20;;;;;;;;;;5039781;28;20174;-60
2022/11/04 04:13:49;;;;;;;1.50;1.40;;;;;;;;;;5045559;28;20206;-57
2022/11/04 04:16:27;;;;;;;1.50;1.30;;;;;;;;;;5043261;28;20224;-58
2022/11/04 04:19:02;;;;;;;2.13;1.27;;;;;;;;;;5045184;28;20701;-58
2022/11/04 04:21:32;;;;;;;1.20;1.10;;;;;;;;;;5038915;28;20170;-57
2022/11/04 04:29:28;;;;;;;1.40;1.30;;;;;;;;;;5041442;28;20197;-61
2022/11/04 04:31:56;;;;;;;2.00;1.50;;;;;;;;;;5037983;28;20179;-58
2022/11/04 04:34:29;;;;;;;1.30;1.20;;;;;;;;;;5046501;28;20186;-60
2022/11/04 04:37:15;;;;;;;1.23;1.13;;;;;;;;;;5031988;28;20171;-59
2022/11/04 04:45:35;;;;;;;1.33;1.23;;;;;;;;;;5044185;28;20210;-58
2022/11/04 04:48:01;;;;;;;1.50;1.40;;;;;;;;;;5051174;28;20171;-59
2022/11/04 04:50:30;;;;;;;1.33;1.20;;;;;;;;;;5049010;28;20625;-61
2022/11/04 04:52:57;;;;;;;2.40;1.33;;;;;;;;;;5039684;28;20191;-58
2022/11/04 04:55:22;;;;;;;1.53;1.43;;;;;;;;;;5048402;28;20506;-58
2022/11/04 04:57:47;;;;;;;1.87;1.40;;;;;;;;;;5044396;28;20265;-59
2022/11/04 05:00:16;;;;;;;1.50;1.33;;;;;;;;;;5041689;28;20562;-59
2022/11/04 05:02:41;;;;;;;4.17;1.20;;;;;;;;;;5042513;28;20240;-60
2022/11/04 05:05:07;;;;;;;1.20;1.10;;;;;;;;;;5050173;28;20824;-61
2022/11/04 05:07:33;;;;;;;1.07;1.00;;;;;;;;;;5040644;28;20639;-57
2022/11/04 05:09:58;;;;;;;1.30;1.20;;;;;;;;;;5049984;28;20213;-58
2022/11/04 05:12:23;;;;;;;1.30;1.20;;;;;;;;;;5048070;28;20175;-60
2022/11/04 05:14:49;;;;;;;1.30;1.20;;;;;;;;;;5048820;28;20254;-60
2022/11/04 05:17:14;;;;;;;1.50;1.30;;;;;;;;;;5039236;28;20179;-60
2022/11/04 05:19:40;;;;;;;1.30;1.20;;;;;;;;;;5046648;28;20211;-56
2022/11/04 05:22:05;;;;;;;1.70;1.30;;;;;;;;;;5049055;28;20639;-58
2022/11/04 05:24:31;;;;;;;1.37;1.17;;;;;;;;;;5035896;28;20178;-58
2022/11/04 05:26:56;;;;;;;1.50;1.30;;;;;;;;;;5039709;28;20203;-59
2022/11/04 05:29:21;;;;;;;1.37;1.27;;;;;;;;;;5050026;28;20281;-57
2022/11/04 05:31:46;;;;;;;1.77;1.30;;;;;;;;;;5040902;28;20279;-59
2022/11/04 05:34:12;;;;;;;1.40;1.30;;;;;;;;;;5046836;28;20194;-59
2022/11/04 05:36:38;;;;;;;1.37;1.23;;;;;;;;;;5045401;28;20622;-59
2022/11/04 05:39:04;;;;;;;1.70;1.40;;;;;;;;;;5048213;28;20198;-57
2022/11/04 05:41:29;;;;;;;1.40;1.30;;;;;;;;;;5045788;28;20658;-57
2022/11/04 05:43:59;;;;;;;1.30;1.20;;;;;;;;;;5034629;28;20225;-60
2022/11/04 05:46:25;;;;;;;1.50;1.40;;;;;;;;;;5045411;28;20187;-60
2022/11/04 05:48:51;;;;;;;1.40;1.30;;;;;;;;;;5048713;28;20193;-58
2022/11/04 05:51:19;;;;;;;1.20;1.10;;;;;;;;;;5042135;28;20182;-61
2022/11/04 05:53:44;;;;;;;1.50;1.30;;;;;;;;;;5049746;28;20174;-60
2022/11/04 05:56:09;;;;;;;1.40;1.23;;;;;;;;;;5046490;28;20167;-59
2022/11/04 05:58:35;;;;;;;1.37;1.20;;;;;;;;;;5049179;28;20213;-61
2022/11/04 06:01:23;;;;;;;1.33;1.23;;;;;;;;;;5038379;28;20207;-58
2022/11/04 06:03:48;;;;;;;1.20;1.10;;;;;;;;;;5048923;28;20262;-59
2022/11/04 06:06:13;;;;;;;1.70;1.43;;;;;;;;;;5045067;28;20286;-59
2022/11/04 06:08:39;;;;;;;1.00;1.00;;;;;;;;;;5031818;28;20195;-60
2022/11/04 06:11:04;;;;;;;1.20;1.10;;;;;;;;;;5047707;28;20183;-58
2022/11/04 06:13:30;;;;;;;1.27;1.17;;;;;;;;;;5048544;28;20185;-59
2022/11/04 06:15:55;;;;;;;1.10;1.00;;;;;;;;;;5041273;28;20187;-60
2022/11/04 06:18:20;;;;;;;1.37;1.27;;;;;;;;;;5048417;28;20183;-59
2022/11/04 06:20:45;;;;;;;1.50;1.30;;;;;;;;;;5049721;28;20211;-61
2022/11/04 06:23:11;;;;;;;1.33;1.20;;;;;;;;;;5048063;28;20171;-60
2022/11/04 06:25:36;;;;;;;1.50;1.40;;;;;;;;;;5047583;28;20195;-63
2022/11/04 06:28:01;;;;;;;1.37;1.20;;;;;;;;;;5045317;28;20174;-61
2022/11/04 06:30:26;;;;;;;1.30;1.20;;;;;;;;;;5047637;28;20194;-60
2022/11/04 06:32:52;;;;;;;2.70;1.10;;;;;;;;;;5046640;28;20179;-60
2022/11/04 06:35:17;;;;;;;1.30;1.20;;;;;;;;;;5044346;28;20167;-60
2022/11/04 06:37:42;;;;;;;1.50;1.20;;;;;;;;;;5049126;28;20179;-60
2022/11/04 06:40:08;;;;;;;1.50;1.20;;;;;;;;;;5047076;28;20199;-60
2022/11/04 06:42:33;;;;;;;1.30;1.20;;;;;;;;;;5050079;28;20171;-60
2022/11/04 06:44:58;;;;;;;1.20;1.10;;;;;;;;;;5046594;28;20179;-61
2022/11/04 06:47:23;;;;;;;1.20;1.10;;;;;;;;;;5048707;28;20194;-60
2022/11/04 06:49:48;;;;;;;1.40;1.10;;;;;;;;;;5046502;28;20236;-60
2022/11/04 06:52:14;;;;;;;1.40;1.30;;;;;;;;;;5049142;28;20642;-60
2022/11/04 06:54:39;;;;;;;1.23;1.13;;;;;;;;;;5046265;28;20189;-60
2022/11/04 06:57:04;;;;;;;1.17;1.07;;;;;;;;;;5044982;28;20187;-62
2022/11/04 06:59:29;;;;;;;1.20;1.10;;;;;;;;;;5044884;28;20199;-60
2022/11/04 07:01:54;;;;;;;1.53;1.30;;;;;;;;;;5045454;28;20994;-62
2022/11/04 07:04:20;;;;;;;1.20;1.10;;;;;;;;;;5044749;28;20194;-60
2022/11/04 07:06:45;;;;;;;1.30;0.90;;;;;;;;;;5044487;28;20198;-60
2022/11/04 07:09:13;;;;;;;1.07;0.97;;;;;;;;;;5047213;28;20614;-61
2022/11/04 07:11:39;;;;;;;1.40;1.10;;;;;;;;;;5043908;28;20886;-63
2022/11/04 07:14:04;;;;;;;1.30;1.20;;;;;;;;;;5047135;28;20179;-60
2022/11/04 07:16:29;;;;;;;1.20;0.93;;;;;;;;;;5042323;28;20174;-61
2022/11/04 07:18:55;;;;;;;1.20;1.10;;;;;;;;;;5047302;28;20721;-59
2022/11/04 07:21:20;;;;;;;1.47;1.10;;;;;;;;;;5047753;28;20266;-59
2022/11/04 07:23:45;;;;;;;1.20;1.10;;;;;;;;;;5048533;28;20183;-62
2022/11/04 07:26:11;;;;;;;0.90;0.90;;;;;;;;;;5046098;28;20217;-58
2022/11/04 07:28:36;;;;;;;0.90;0.90;;;;;;;;;;5047590;28;20179;-59
2022/11/04 07:31:03;;;;;;;1.20;1.10;;;;;;;;;;5040946;28;20185;-61
2022/11/04 07:33:28;;;;;;;1.10;1.00;;;;;;;;;;5047770;28;20166;-61
2022/11/04 07:35:54;;;;;;;1.10;1.00;;;;;;;;;;5041335;28;20186;-61
2022/11/04 07:38:20;;;;;;;1.37;1.00;;;;;;;;;;5047394;28;20178;-60
2022/11/04 07:40:46;;;;;;;1.13;1.07;;;;;;;;;;5047755;28;20289;-60
2022/11/04 07:43:11;;;;;;;1.20;1.10;;;;;;;;;;5047630;28;20761;-60
2022/11/04 07:45:36;;;;;;;1.23;1.13;;;;;;;;;;5039651;28;20610;-61
2022/11/04 07:48:02;;;;;;;1.13;1.03;;;;;;;;;;5037896;28;20181;-60
2022/11/04 07:50:27;;;;;;;1.10;1.00;;;;;;;;;;5047293;28;20579;-60
2022/11/04 07:52:52;;;;;;;1.30;1.20;;;;;;;;;;5040401;28;20183;-61
2022/11/04 07:55:18;;;;;;;1.50;1.40;;;;;;;;;;5035664;28;20262;-61
2022/11/04 07:57:47;;;;;;;0.93;0.93;;;;;;;;;;5043558;28;20210;-60
2022/11/04 08:00:14;;;;;;;1.27;1.17;;;;;;;;;;5038134;28;20631;-60
2022/11/04 08:02:41;;;;;;;1.40;1.30;;;;;;;;;;5031408;28;20258;-61
2022/11/04 08:05:07;;;;;;;0.97;0.93;;;;;;;;;;5039146;28;20297;-60
2022/11/04 08:07:32;;;;;;;1.43;1.30;;;;;;;;;;5044416;28;20190;-61
2022/11/04 08:09:57;;;;;;;1.30;1.07;;;;;;;;;;5045127;28;20203;-59
2022/11/04 08:12:23;;;;;;;1.40;1.30;;;;;;;;;;5046102;28;20175;-61
2022/11/04 08:14:49;;;;;;;1.63;1.17;;;;;;;;;;5047743;28;20185;-61
2022/11/04 08:17:14;;;;;;;1.20;1.10;;;;;;;;;;5042904;28;20182;-61
2022/11/04 08:19:39;;;;;;;1.20;1.10;;;;;;;;;;5048292;28;20194;-61
2022/11/04 08:22:04;;;;;;;1.10;1.00;;;;;;;;;;5050614;28;20178;-62
2022/11/04 08:24:29;;;;;;;1.23;1.10;;;;;;;;;;5050738;28;20187;-61
2022/11/04 08:26:55;;;;;;;1.20;1.10;;;;;;;;;;5046303;28;20695;-62
2022/11/04 08:29:20;;;;;;;1.23;1.13;;;;;;;;;;5047323;28;20449;-61
2022/11/04 08:31:45;;;;;;;1.37;1.10;;;;;;;;;;5047056;28;20667;-61
2022/11/04 08:34:11;;;;;;;1.17;1.07;;;;;;;;;;5048761;28;20175;-61
2022/11/04 08:36:39;;;;;;;1.20;1.10;;;;;;;;;;5044978;28;20282;-61
2022/11/04 08:39:05;;;;;;;1.63;1.23;;;;;;;;;;5046142;28;20585;-61
2022/11/04 08:41:31;;;;;;;1.20;1.10;;;;;;;;;;5052772;28;20185;-61
2022/11/04 08:43:59;;;;;;;1.10;1.00;;;;;;;;;;5034761;28;20187;-61
2022/11/04 08:46:26;;;;;;;1.20;1.10;;;;;;;;;;5042350;28;20207;-61
2022/11/04 08:48:51;;;;;;;1.80;1.17;;;;;;;;;;5039922;28;20187;-61
2022/11/04 08:51:20;;;;;;;1.20;1.10;;;;;;;;;;5036049;28;20182;-59
2022/11/04 08:53:46;;;;;;;1.83;1.20;;;;;;;;;;5047284;28;20191;-62
2022/11/04 08:56:15;;;;;;;3.07;1.80;;;;;;;;;;5045219;28;20263;-57
2022/11/04 08:58:41;;;;;;;3.87;2.30;;;;;;;;;;5046255;28;20171;-58
2022/11/04 09:01:06;;;;;;;3.97;1.80;;;;;;;;;;5047338;28;20204;-56
2022/11/04 09:03:33;;;;;;;3.60;2.07;;;;;;;;;;5047335;28;20277;-58
2022/11/04 09:05:59;;;;;;;4.30;2.30;;;;;;;;;;4990968;28;20215;-57
2022/11/04 09:08:25;;;;;;;3.93;2.00;;;;;;;;;;5047653;28;20674;-58
2022/11/04 09:10:50;;;;;;;7.90;2.30;;;;;;;;;;5042725;28;20237;-62
2022/11/04 09:13:15;;;;;;;4.20;1.93;;;;;;;;;;5030805;28;20241;-62
2022/11/04 09:15:41;;;;;;;5.47;2.20;;;;;;;;;;5024477;28;20180;-61
2022/11/04 09:18:07;;;;;;;5.47;1.80;;;;;;;;;;5025204;28;20211;-60
2022/11/04 09:20:33;;;;;;;3.70;2.03;;;;;;;;;;5018869;28;20223;-61
2022/11/04 09:22:58;;;;;;;4.53;1.77;;;;;;;;;;5021431;28;20208;-59
2022/11/04 09:25:24;;;;;;;5.30;2.00;;;;;;;;;;5019355;28;20236;-60
2022/11/04 09:27:49;;;;;;;2.43;1.60;;;;;;;;;;5026676;28;20188;-62
2022/11/04 09:30:14;;;;;;;2.83;1.83;;;;;;;;;;5035684;28;20202;-61
2022/11/04 09:32:40;;;;;;;1.97;1.60;;;;;;;;;;5037921;28;20176;-60
2022/11/04 09:35:05;;;;;;;7.57;1.80;;;;;;;;;;5026798;28;20190;-59
2022/11/04 09:37:31;;;;;;;2.53;1.60;;;;;;;;;;5026120;28;20207;-60
2022/11/04 09:39:57;;;;;;;3.07;1.90;;;;;;;;;;5020166;28;20234;-60
2022/11/04 09:42:53;;;;;;;2.63;1.50;;;;;;;;;;5021749;28;20255;-60
2022/11/04 09:45:23;;;;;;;3.17;1.60;;;;;;;;;;5019967;28;20200;-60
2022/11/04 09:47:50;;;;;;;5.27;1.83;;;;;;;;;;5001066;28;20172;-60
2022/11/04 09:50:21;;;;;;;2.40;1.70;;;;;;;;;;5024259;28;20212;-60
2022/11/04 09:53:01;;;;;;;3.50;1.70;;;;;;;;;;5022813;28;20257;-60
2022/11/04 09:55:36;;;;;;;2.20;1.50;;;;;;;;;;5016132;28;20182;-59
2022/11/04 09:58:03;;;;;;;3.33;1.67;;;;;;;;;;5015579;28;20190;-60
2022/11/04 10:00:30;;;;;;;2.60;1.60;;;;;;;;;;5015228;28;20228;-61
2022/11/04 10:03:04;;;;;;;3.00;1.50;;;;;;;;;;5045379;28;20183;-60
2022/11/04 10:05:38;;;;;;;2.90;1.60;;;;;;;;;;5024631;28;20636;-60
2022/11/04 10:08:37;;;;;;;2.17;1.50;;;;;;;;;;5025411;28;20183;-60
2022/11/04 10:11:26;;;;;;;3.73;1.70;;;;;;;;;;5017336;28;20183;-61
2022/11/04 10:13:55;;;;;;;3.67;1.63;;;;;;;;;;5015804;28;20652;-61
2022/11/04 10:16:29;;;;;;;3.03;1.57;;;;;;;;;;5023936;28;20222;-61
2022/11/04 10:19:09;;;;;;;4.27;1.67;;;;;;;;;;5023808;28;20477;-61
2022/11/04 10:21:53;;;;;;;4.33;1.73;;;;;;;;;;5014086;28;20183;-61
2022/11/04 10:24:24;;;;;;;2.10;1.60;;;;;;;;;;5022828;28;20237;-61
2022/11/04 10:26:53;;;;;;;5.20;2.00;;;;;;;;;;5028916;28;20261;-62
2022/11/04 10:29:27;;;;;;;2.00;1.57;;;;;;;;;;5019889;28;20208;-59
2022/11/04 10:31:53;;;;;;;2.87;1.80;;;;;;;;;;5014521;28;20229;-58
2022/11/04 10:34:26;;;;;;;1.67;1.40;;;;;;;;;;5019865;28;20617;-58
2022/11/04 10:36:52;;;;;;;2.57;1.50;;;;;;;;;;5022883;28;20188;-59
2022/11/04 10:39:26;;;;;;;6.70;1.70;;;;;;;;;;5009729;28;20222;-58
2022/11/04 10:41:51;;;;;;;2.97;1.58;;;;;;;;;;5043713;28;20273;-57
2022/11/04 10:44:22;;;;;;;4.17;1.60;;;;;;;;;;5038855;28;20265;-57
2022/11/04 10:47:25;;;;;;;3.38;1.80;;;;;;;;;;5042393;28;20202;-57
2022/11/04 10:50:26;;;;;;;3.97;1.63;;;;;;;;;;5037702;28;20203;-59
2022/11/04 10:52:54;;;;;;;3.58;1.65;;;;;;;;;;5046292;28;20676;-57
2022/11/04 10:55:47;;;;;;;3.47;2.22;;;;;;;;;;5040658;28;20621;-58
2022/11/04 10:58:20;;;;;;;5.60;1.92;;;;;;;;;;5046280;28;20211;-57
2022/11/04 11:00:46;;;;;;;3.42;1.85;;;;;;;;;;5043984;28;20206;-58
2022/11/04 11:03:24;;;;;;;3.80;1.92;;;;;;;;;;5036794;28;20579;-59
2022/11/04 11:05:55;;;;;;;5.90;2.10;;;;;;;;;;5037817;28;20632;-59
2022/11/04 11:08:30;;;;;;;4.15;1.90;;;;;;;;;;5041909;28;20179;-59
2022/11/04 11:10:56;;;;;;;4.60;1.75;;;;;;;;;;5045707;28;20201;-57
2022/11/04 11:13:26;;;;;;;3.22;1.70;;;;;;;;;;5047207;28;20725;-58
2022/11/04 11:16:11;;;;;;;4.78;1.75;;;;;;;;;;5039100;28;20199;-59
2022/11/04 11:18:38;;;;;;;5.47;2.05;;;;;;;;;;5041552;28;20583;-59
2022/11/04 11:21:19;;;;;;;3.97;1.80;;;;;;;;;;5045478;28;20193;-55
2022/11/04 11:23:47;;;;;;;3.08;2.00;;;;;;;;;;5044441;28;20174;-60
2022/11/04 11:26:29;;;;;;;3.10;1.90;;;;;;;;;;5042430;28;20195;-58
2022/11/04 11:28:56;;;;;;;3.35;2.08;;;;;;;;;;5040293;28;20709;-57
2022/11/04 11:31:23;;;;;;;2.83;1.88;;;;;;;;;;5039697;28;20253;-57
2022/11/04 11:33:56;;;;;;;3.00;1.98;;;;;;;;;;5045743;28;20199;-55
2022/11/04 11:36:43;;;;;;;5.55;2.22;;;;;;;;;;5036601;28;20171;-57
2022/11/04 11:39:12;;;;;;;4.32;2.10;;;;;;;;;;5036711;28;20191;-57
2022/11/04 11:42:00;;;;;;;3.58;1.90;;;;;;;;;;5040193;28;20176;-56
2022/11/04 11:44:33;;;;;;;3.15;1.83;;;;;;;;;;5038698;28;20182;-56
2022/11/04 11:47:01;;;;;;;3.67;1.75;;;;;;;;;;5040772;28;20613;-56
2022/11/04 11:49:30;;;;;;;2.67;1.90;;;;;;;;;;5044051;28;20297;-56
2022/11/04 11:52:16;;;;;;;2.15;1.60;;;;;;;;;;5047061;28;20233;-58
2022/11/04 11:54:43;;;;;;;3.65;1.95;;;;;;;;;;5043241;28;20183;-53
2022/11/04 11:57:22;;;;;;;2.72;1.80;;;;;;;;;;5048336;28;20175;-57
2022/11/04 11:59:52;;;;;;;3.05;1.73;;;;;;;;;;5043092;28;20206;-54
2022/11/04 12:02:42;;;;;;;3.35;1.77;;;;;;;;;;5044653;28;20571;-56
2022/11/04 12:05:09;;;;;;;5.30;2.10;;;;;;;;;;5041397;28;20178;-55
2022/11/04 12:07:56;;;;;;;3.15;1.90;;;;;;;;;;5043937;28;20634;-55
2022/11/04 12:10:41;;;;;;;2.53;1.70;;;;;;;;;;5044226;28;20194;-56
2022/11/04 12:13:22;;;;;;;3.65;2.13;;;;;;;;;;5044485;28;20190;-57
2022/11/04 12:16:07;;;;;;;2.60;1.70;;;;;;;;;;5043476;28;20489;-57
2022/11/04 12:18:51;;;;;;;4.53;1.80;;;;;;;;;;5045399;28;20179;-54
2022/11/04 12:21:25;;;;;;;3.05;1.85;;;;;;;;;;5045924;28;20210;-56
2022/11/04 12:23:55;;;;;;;3.55;1.85;;;;;;;;;;5048114;28;20179;-56
2022/11/04 12:26:20;;;;;;;2.33;1.73;;;;;;;;;;5047760;28;20194;-55
2022/11/04 12:29:06;;;;;;;2.15;1.77;;;;;;;;;;5045646;28;20185;-56
2022/11/04 12:32:19;;;;;;;2.47;1.77;;;;;;;;;;5045645;28;20265;-56
2022/11/04 12:35:03;;;;;;;3.70;1.60;;;;;;;;;;5040691;28;20191;-56
2022/11/04 12:37:39;;;;;;;3.60;1.92;;;;;;;;;;5038039;28;20589;-56
2022/11/04 12:40:24;;;;;;;2.25;1.63;;;;;;;;;;5044672;28;20546;-56
2022/11/04 12:42:57;;;;;;;1.83;1.50;;;;;;;;;;5047491;28;20261;-56
2022/11/04 12:45:41;;;;;;;7.47;2.00;;;;;;;;;;5040867;28;20198;-56
2022/11/04 12:48:09;;;;;;;2.38;1.73;;;;;;;;;;5042616;28;20198;-57
2022/11/04 12:51:04;;;;;;;2.40;1.80;;;;;;;;;;5043007;28;20285;-57
2022/11/04 12:53:50;;;;;;;2.75;1.70;;;;;;;;;;5042024;28;20489;-55
2022/11/04 12:56:17;;;;;;;2.55;1.80;;;;;;;;;;5045138;28;20503;-55
2022/11/04 12:59:08;;;;;;;4.88;1.92;;;;;;;;;;5034774;28;20184;-56
2022/11/04 13:01:38;;;;;;;2.67;1.65;;;;;;;;;;5041109;28;20167;-57
2022/11/04 13:04:14;;;;;;;4.15;2.13;;;;;;;;;;5040796;28;20178;-58
2022/11/04 13:06:46;;;;;;;2.45;1.90;;;;;;;;;;5044248;28;20199;-58
2022/11/04 13:09:36;;;;;;;2.88;1.67;;;;;;;;;;5042052;28;20198;-55
2022/11/04 13:12:06;;;;;;;2.75;1.75;;;;;;;;;;5043180;28;20201;-57
2022/11/04 13:14:45;;;;;;;3.08;1.70;;;;;;;;;;5043123;28;20194;-54
2022/11/04 13:17:14;;;;;;;3.13;1.77;;;;;;;;;;5043975;28;20229;-56
2022/11/04 13:19:46;;;;;;;3.05;1.98;;;;;;;;;;5047744;28;20195;-55
2022/11/04 13:22:17;;;;;;;3.35;1.85;;;;;;;;;;5042894;28;20537;-55
2022/11/04 13:24:50;;;;;;;2.60;1.90;;;;;;;;;;5045471;28;20182;-55
2022/11/04 13:27:24;;;;;;;2.85;1.80;;;;;;;;;;5040614;28;20198;-56
2022/11/04 13:29:50;;;;;;;3.33;1.70;;;;;;;;;;5043184;28;20691;-54
2022/11/04 13:32:20;;;;;;;2.63;1.60;;;;;;;;;;5042422;28;20187;-56
2022/11/04 13:34:53;;;;;;;4.10;2.10;;;;;;;;;;5041757;28;20191;-56
2022/11/04 13:37:24;;;;;;;5.18;2.10;;;;;;;;;;5039414;28;20179;-58
2022/11/04 13:39:56;;;;;;;3.35;1.80;;;;;;;;;;5036548;28;20199;-58
2022/11/04 13:42:30;;;;;;;2.42;1.70;;;;;;;;;;5044318;28;20179;-56
2022/11/04 13:44:57;;;;;;;3.38;1.80;;;;;;;;;;5042480;28;20558;-57
2022/11/04 13:47:34;;;;;;;3.17;1.50;;;;;;;;;;5047078;28;20210;-58
2022/11/04 13:49:59;;;;;;;2.50;1.58;;;;;;;;;;5040678;28;20297;-58
2022/11/04 13:52:30;;;;;;;3.15;1.83;;;;;;;;;;5043177;28;20270;-57
2022/11/04 13:55:06;;;;;;;2.53;1.83;;;;;;;;;;5046202;28;20487;-57
2022/11/04 13:57:53;;;;;;;2.80;1.63;;;;;;;;;;5041694;28;20185;-56
2022/11/04 14:00:22;;;;;;;3.30;2.10;;;;;;;;;;5043475;28;20574;-56
2022/11/04 14:02:52;;;;;;;3.57;1.80;;;;;;;;;;5043960;28;20179;-58
2022/11/04 14:05:31;;;;;;;2.42;1.60;;;;;;;;;;5042248;28;20183;-58
2022/11/04 14:08:01;;;;;;;3.13;1.77;;;;;;;;;;5041001;28;20650;-58
2022/11/04 14:10:48;;;;;;;2.45;1.90;;;;;;;;;;5042844;28;20226;-56
2022/11/04 14:13:25;;;;;;;2.30;1.73;;;;;;;;;;5046636;28;20215;-56
2022/11/04 14:16:04;;;;;;;2.90;1.77;;;;;;;;;;5046488;28;20175;-58
2022/11/04 14:18:44;;;;;;;2.58;1.60;;;;;;;;;;5033318;28;20180;-57
2022/11/04 14:21:14;;;;;;;2.70;1.60;;;;;;;;;;5039734;28;20192;-56
2022/11/04 14:23:45;;;;;;;2.85;1.63;;;;;;;;;;5040288;28;20565;-57
2022/11/04 14:26:13;;;;;;;2.70;1.58;;;;;;;;;;5035514;28;20199;-57
2022/11/04 14:28:42;;;;;;;2.75;1.50;;;;;;;;;;5037674;28;20240;-57
2022/11/04 14:31:14;;;;;;;2.50;1.77;;;;;;;;;;5033796;28;20598;-58
2022/11/04 14:33:55;;;;;;;1.80;1.45;;;;;;;;;;5034752;28;20270;-56
2022/11/04 14:36:20;;;;;;;2.30;1.58;;;;;;;;;;5032430;28;20179;-58
2022/11/04 14:39:09;;;;;;;3.25;1.65;;;;;;;;;;5043338;28;20579;-54
2022/11/04 14:41:55;;;;;;;3.00;1.50;;;;;;;;;;5039324;28;20179;-56
2022/11/04 14:44:36;;;;;;;2.05;1.58;;;;;;;;;;5034533;28;20167;-55
2022/11/04 14:47:25;;;;;;;3.50;1.67;;;;;;;;;;5037765;28;20198;-57
2022/11/04 14:49:58;;;;;;;2.63;1.60;;;;;;;;;;5040144;28;20213;-57
2022/11/04 14:52:26;;;;;;;1.55;1.45;;;;;;;;;;5036666;28;20178;-58
2022/11/04 14:54:56;;;;;;;2.50;1.40;;;;;;;;;;5041177;28;20192;-58
2022/11/04 14:57:22;;;;;;;2.60;1.50;;;;;;;;;;5041173;28;20167;-58
2022/11/04 14:59:48;;;;;;;2.17;1.50;;;;;;;;;;5042471;28;20263;-58
2022/11/04 15:02:18;;;;;;;3.42;1.67;;;;;;;;;;5035441;28;20172;-57
2022/11/04 15:04:58;;;;;;;2.17;1.30;;;;;;;;;;5037357;28;20179;-57
2022/11/04 15:07:37;;;;;;;2.10;1.48;;;;;;;;;;5034055;28;20223;-57
2022/11/04 15:10:35;;;;;;;2.42;1.65;;;;;;;;;;5039508;28;20195;-56
2022/11/04 15:13:00;;;;;;;2.22;1.50;;;;;;;;;;5033119;28;20198;-56
2022/11/04 15:15:33;;;;;;;2.97;1.52;;;;;;;;;;5041378;28;20175;-55
2022/11/04 15:18:13;;;;;;;2.13;1.60;;;;;;;;;;5038093;28;20237;-57
2022/11/04 15:20:52;;;;;;;2.97;1.58;;;;;;;;;;5050430;28;20199;-57
2022/11/04 15:23:40;;;;;;;2.50;1.50;;;;;;;;;;5041178;28;20189;-58
2022/11/04 15:26:05;;;;;;;3.00;1.70;;;;;;;;;;5029530;28;20670;-58
2022/11/04 15:28:34;;;;;;;1.95;1.40;;;;;;;;;;5033849;28;20181;-57
2022/11/04 15:31:31;;;;;;;1.67;1.58;;;;;;;;;;5040604;28;20179;-56
2022/11/04 15:33:59;;;;;;;1.92;1.40;;;;;;;;;;5042498;28;20183;-56
2022/11/04 15:36:36;;;;;;;2.28;1.60;;;;;;;;;;5045278;28;20196;-58